Time;durP1;ratioP1;P1;durP2;ratioP2;P2;SDS_P1;SDS_P2;PMS_P1;PMS_P2;Temp;Humidity;BMP_temperature;BMP_pressure;BME280_temperature;BME280_humidity;BME280_pressure;Samples;Min_cycle;Max_cycle;Signal;HPM_P1;HPM_P2
2023/02/09 00:00:09;;;;;;;;;;;-0.10;95.70;;;;;;5066860;28;19924;-69
2023/02/09 00:02:37;;;;;;;;;;;-0.20;95.50;;;;;;5069963;28;20015;-70
2023/02/09 00:05:04;;;;;;;;;;;-0.10;95.30;;;;;;5072038;28;19931;-70
2023/02/09 00:07:31;;;;;;;;;;;-0.10;95.10;;;;;;5066273;28;19925;-69
2023/02/09 00:09:58;;;;;;;;;;;0.00;94.30;;;;;;5072430;28;19925;-69
2023/02/09 00:15:10;;;;;;;;;;;0.10;93.00;;;;;;5069497;28;20304;-69
2023/02/09 00:17:37;;;;;;;;;;;0.20;92.70;;;;;;5072222;28;19925;-68
2023/02/09 00:20:04;;;;;;;;;;;0.10;92.50;;;;;;5072445;28;20405;-70
2023/02/09 00:22:31;;;;;;;;;;;0.20;92.30;;;;;;5065556;28;20336;-69
2023/02/09 00:24:58;;;;;;;;;;;0.10;92.10;;;;;;5071839;28;20347;-69
2023/02/09 00:27:26;;;;;;;;;;;0.10;91.80;;;;;;5071396;28;20004;-69
2023/02/09 00:29:52;;;;;;;;;;;0.10;91.70;;;;;;5070782;28;19934;-68
2023/02/09 00:32:19;;;;;;;;;;;0.10;91.70;;;;;;5069978;28;20019;-69
2023/02/09 00:34:46;;;;;;;;;;;0.00;91.80;;;;;;5068428;28;19931;-69
2023/02/09 00:37:13;;;;;;;;;;;0.00;92.00;;;;;;5068789;28;19975;-70
2023/02/09 00:39:39;;;;;;;;;;;0.00;91.80;;;;;;5073504;28;19924;-71
2023/02/09 00:42:06;;;;;;;;;;;0.00;91.80;;;;;;5073345;28;20011;-70
2023/02/09 00:44:35;;;;;;;;;;;0.00;91.80;;;;;;5072352;28;20326;-70
2023/02/09 00:47:02;;;;;;;;;;;-0.10;91.90;;;;;;5065234;28;20449;-69
2023/02/09 00:49:29;;;;;;;;;;;-0.20;92.00;;;;;;5057625;28;19925;-69
2023/02/09 00:51:56;;;;;;;;;;;-0.20;92.20;;;;;;5061643;28;19935;-69
2023/02/09 00:54:22;;;;;;;;;;;-0.30;92.20;;;;;;5070578;28;20387;-69
2023/02/09 00:56:49;;;;;;;;;;;-0.20;92.30;;;;;;5070254;28;20382;-69
2023/02/09 00:59:16;;;;;;;;;;;-0.20;91.90;;;;;;5065805;28;19931;-68
2023/02/09 01:01:44;;;;;;;;;;;0.00;91.30;;;;;;5065957;28;19925;-69
2023/02/09 01:04:11;;;;;;;;;;;0.00;91.00;;;;;;5067078;28;19933;-69
2023/02/09 01:06:38;;;;;;;;;;;0.10;90.70;;;;;;5066065;28;20401;-69
2023/02/09 01:09:04;;;;;;;;;;;0.10;90.60;;;;;;5062606;28;19925;-69
2023/02/09 01:11:31;;;;;;;;;;;0.10;90.50;;;;;;5065187;28;19931;-69
2023/02/09 01:13:58;;;;;;;;;;;0.10;90.50;;;;;;5069541;28;19933;-69
2023/02/09 01:16:27;;;;;;;;;;;0.10;90.50;;;;;;5070797;28;19931;-69
2023/02/09 01:18:55;;;;;;;;;;;0.00;90.60;;;;;;5069843;28;20482;-69
2023/02/09 01:21:22;;;;;;;;;;;-0.10;90.80;;;;;;5065169;28;22037;-69
2023/02/09 01:23:49;;;;;;;;;;;-0.10;91.00;;;;;;5065274;28;19938;-69
2023/02/09 01:26:16;;;;;;;;;;;-0.10;91.10;;;;;;5071410;28;19939;-69
2023/02/09 01:28:43;;;;;;;;;;;-0.20;91.20;;;;;;5069827;28;19947;-68
2023/02/09 01:31:18;;;;;;;;;;;-0.20;91.30;;;;;;5065397;28;19925;-68
2023/02/09 01:33:45;;;;;;;;;;;-0.20;91.50;;;;;;5067415;28;19925;-68
2023/02/09 01:36:13;;;;;;;;;;;-0.30;91.60;;;;;;5068852;28;20276;-68
2023/02/09 01:38:40;;;;;;;;;;;-0.40;91.60;;;;;;5068607;28;19924;-68
2023/02/09 01:41:06;;;;;;;;;;;-0.40;91.70;;;;;;5071140;28;19924;-68
2023/02/09 01:43:47;;;;;;;;;;;-0.30;91.40;;;;;;5069830;28;19963;-68
2023/02/09 01:46:14;;;;;;;;;;;-0.30;91.10;;;;;;5071549;28;20019;-68
2023/02/09 01:48:41;;;;;;;;;;;-0.30;90.90;;;;;;5068478;28;20276;-69
2023/02/09 01:51:07;;;;;;;;;;;-0.30;90.80;;;;;;5068441;28;20020;-68
2023/02/09 01:53:35;;;;;;;;;;;-0.40;90.70;;;;;;5067313;28;20015;-68
2023/02/09 01:56:04;;;;;;;;;;;-0.40;90.80;;;;;;5070528;28;20395;-68
2023/02/09 01:58:31;;;;;;;;;;;-0.40;91.00;;;;;;5068445;28;20298;-69
2023/02/09 02:00:58;;;;;;;;;;;-0.50;91.00;;;;;;5069281;28;19943;-68
2023/02/09 02:03:26;;;;;;;;;;;-0.50;91.20;;;;;;5067996;28;20295;-69
2023/02/09 02:05:55;;;;;;;;;;;-0.50;91.50;;;;;;5062770;28;20015;-68
2023/02/09 02:08:25;;;;;;;;;;;-0.50;91.60;;;;;;5068307;28;20023;-69
2023/02/09 02:10:53;;;;;;;;;;;-0.50;91.60;;;;;;5070098;28;19925;-69
2023/02/09 02:13:20;;;;;;;;;;;-0.50;91.60;;;;;;5061644;28;20398;-70
2023/02/09 02:15:51;;;;;;;;;;;-0.50;91.50;;;;;;5069594;28;20387;-69
2023/02/09 02:18:23;;;;;;;;;;;-0.60;91.60;;;;;;5065841;28;19931;-69
2023/02/09 02:21:20;;;;;;;;;;;-0.50;91.80;;;;;;5068708;28;19931;-68
2023/02/09 02:23:53;;;;;;;;;;;-0.50;91.60;;;;;;5058459;28;19925;-69
2023/02/09 02:26:44;;;;;;;;;;;-0.50;91.50;;;;;;5070779;28;20015;-69
2023/02/09 02:29:26;;;;;;;;;;;-0.50;91.40;;;;;;5072768;28;20011;-67
2023/02/09 02:32:05;;;;;;;;;;;-0.50;91.50;;;;;;5072051;28;19928;-67
2023/02/09 02:34:36;;;;;;;;;;;-0.50;91.50;;;;;;5070008;28;19928;-68
2023/02/09 02:37:10;;;;;;;;;;;-0.60;91.60;;;;;;5072551;28;19947;-68
2023/02/09 02:39:38;;;;;;;;;;;-0.60;91.80;;;;;;5071966;28;19931;-68
2023/02/09 02:44:59;;;;;;;;;;;-0.70;92.20;;;;;;5071534;28;19946;-68
2023/02/09 02:47:27;;;;;;;;;;;-0.70;92.50;;;;;;5069151;28;19924;-68
2023/02/09 02:49:56;;;;;;;;;;;-0.70;92.60;;;;;;5069893;28;20000;-67
2023/02/09 02:52:23;;;;;;;;;;;-0.80;92.70;;;;;;5071139;28;20283;-68
2023/02/09 02:54:52;;;;;;;;;;;-0.80;92.80;;;;;;5071417;28;19975;-68
2023/02/09 02:57:21;;;;;;;;;;;-0.70;93.00;;;;;;5069445;28;20302;-67
2023/02/09 02:59:52;;;;;;;;;;;-0.70;92.90;;;;;;5072513;28;20011;-68
2023/02/09 03:02:21;;;;;;;;;;;-0.70;93.00;;;;;;5075660;28;20018;-68
2023/02/09 03:04:52;;;;;;;;;;;-0.80;93.30;;;;;;5074029;28;20015;-68
2023/02/09 03:07:18;;;;;;;;;;;-0.90;93.60;;;;;;5074965;28;19931;-67
2023/02/09 03:09:48;;;;;;;;;;;-0.90;93.80;;;;;;5076007;28;19925;-67
2023/02/09 03:12:18;;;;;;;;;;;-1.00;94.10;;;;;;5075530;28;20446;-67
2023/02/09 03:14:48;;;;;;;;;;;-1.00;94.30;;;;;;5075437;28;20286;-67
2023/02/09 03:17:20;;;;;;;;;;;-1.10;94.50;;;;;;5074917;28;20012;-68
2023/02/09 03:19:51;;;;;;;;;;;-1.00;94.50;;;;;;5071422;28;20446;-68
2023/02/09 03:22:22;;;;;;;;;;;-0.70;94.10;;;;;;5075132;28;20005;-68
2023/02/09 03:24:53;;;;;;;;;;;-0.60;93.80;;;;;;5074909;28;19925;-68
2023/02/09 03:27:22;;;;;;;;;;;-0.70;93.70;;;;;;5075535;28;20027;-68
2023/02/09 03:29:50;;;;;;;;;;;-0.70;93.80;;;;;;5075663;28;19967;-68
2023/02/09 03:32:17;;;;;;;;;;;-0.70;93.80;;;;;;5074266;28;20454;-67
2023/02/09 03:34:44;;;;;;;;;;;-0.70;94.10;;;;;;5074743;28;19929;-67
2023/02/09 03:37:12;;;;;;;;;;;-0.80;94.40;;;;;;5075703;28;19925;-67
2023/02/09 03:39:39;;;;;;;;;;;-0.80;94.70;;;;;;5075947;28;20011;-67
2023/02/09 03:42:06;;;;;;;;;;;-0.80;95.00;;;;;;5075273;28;19925;-68
2023/02/09 03:44:33;;;;;;;;;;;-0.90;95.10;;;;;;5073117;28;19924;-67
2023/02/09 03:47:00;;;;;;;;;;;-0.90;95.40;;;;;;5074410;28;19924;-67
2023/02/09 03:49:27;;;;;;;;;;;-0.90;95.60;;;;;;5075126;28;19947;-68
2023/02/09 03:51:54;;;;;;;;;;;-0.90;95.80;;;;;;5073792;28;19931;-67
2023/02/09 03:54:22;;;;;;;;;;;-0.90;96.10;;;;;;5074207;28;19924;-68
2023/02/09 03:56:49;;;;;;;;;;;-0.90;96.20;;;;;;5073959;28;19931;-66
2023/02/09 03:59:16;;;;;;;;;;;-0.90;96.20;;;;;;5075369;28;19931;-67
2023/02/09 04:01:42;;;;;;;;;;;-0.90;96.20;;;;;;5074368;28;19924;-66
2023/02/09 04:04:09;;;;;;;;;;;-0.90;96.10;;;;;;5074344;28;20306;-67
2023/02/09 04:06:37;;;;;;;;;;;-0.90;96.00;;;;;;5072270;28;19993;-67
2023/02/09 04:09:04;;;;;;;;;;;-0.90;96.00;;;;;;5073812;28;20009;-68
2023/02/09 04:11:32;;;;;;;;;;;-0.90;96.00;;;;;;5071090;28;19938;-67
2023/02/09 04:13:59;;;;;;;;;;;-0.90;96.00;;;;;;5072186;28;20344;-67
2023/02/09 04:16:25;;;;;;;;;;;-0.90;96.10;;;;;;5074496;28;19931;-67
2023/02/09 04:18:52;;;;;;;;;;;-0.90;96.30;;;;;;5072621;28;19931;-67
2023/02/09 04:21:19;;;;;;;;;;;-1.00;96.50;;;;;;5073677;28;20027;-67
2023/02/09 04:23:45;;;;;;;;;;;-0.90;96.60;;;;;;5074296;28;20015;-67
2023/02/09 04:26:12;;;;;;;;;;;-1.00;96.60;;;;;;5074096;28;20497;-67
2023/02/09 04:28:40;;;;;;;;;;;-0.90;96.60;;;;;;5074455;28;19925;-68
2023/02/09 04:31:07;;;;;;;;;;;-0.90;96.60;;;;;;5074742;28;20011;-67
2023/02/09 04:33:33;;;;;;;;;;;-0.90;96.70;;;;;;5070918;28;19929;-68
2023/02/09 04:36:00;;;;;;;;;;;-1.00;96.70;;;;;;5071558;28;19924;-68
2023/02/09 04:38:27;;;;;;;;;;;-0.90;96.80;;;;;;5073962;28;20303;-69
2023/02/09 04:40:54;;;;;;;;;;;-1.00;97.00;;;;;;5073569;28;19934;-68
2023/02/09 04:43:21;;;;;;;;;;;-1.00;97.50;;;;;;5073673;28;19924;-66
2023/02/09 04:45:49;;;;;;;;;;;-1.00;98.00;;;;;;5072587;28;19924;-66
2023/02/09 04:48:16;;;;;;;;;;;-1.00;98.00;;;;;;5073410;28;19934;-69
2023/02/09 04:50:43;;;;;;;;;;;-1.00;97.90;;;;;;5073172;28;19930;-68
2023/02/09 04:53:10;;;;;;;;;;;-1.00;97.90;;;;;;5073724;28;19924;-68
2023/02/09 04:55:37;;;;;;;;;;;-1.00;98.00;;;;;;5073608;28;19939;-67
2023/02/09 05:00:50;;;;;;;;;;;-1.00;97.80;;;;;;5057438;28;19939;-69
2023/02/09 05:03:17;;;;;;;;;;;-0.90;97.70;;;;;;5072528;28;20426;-69
2023/02/09 05:05:44;;;;;;;;;;;-0.90;97.40;;;;;;5073550;28;19947;-68
2023/02/09 05:08:11;;;;;;;;;;;-0.90;97.30;;;;;;5072767;28;19960;-68
2023/02/09 05:10:39;;;;;;;;;;;-0.80;97.30;;;;;;5073674;28;19960;-67
2023/02/09 05:13:05;;;;;;;;;;;-0.90;97.40;;;;;;5072985;28;19978;-68
2023/02/09 05:15:32;;;;;;;;;;;-0.90;97.70;;;;;;5072544;28;20013;-67
2023/02/09 05:18:01;;;;;;;;;;;-0.90;97.90;;;;;;5072968;28;20037;-67
2023/02/09 05:20:27;;;;;;;;;;;-0.90;98.00;;;;;;5067402;28;19929;-68
2023/02/09 05:22:54;;;;;;;;;;;-0.90;98.00;;;;;;5071047;28;19963;-68
2023/02/09 05:25:21;;;;;;;;;;;-0.90;97.90;;;;;;5072532;28;20387;-69
2023/02/09 05:27:47;;;;;;;;;;;-0.90;98.00;;;;;;5072976;28;19928;-68
2023/02/09 05:30:14;;;;;;;;;;;-1.00;98.20;;;;;;5072550;28;19928;-68
2023/02/09 05:32:41;;;;;;;;;;;-1.00;98.40;;;;;;5072099;28;20032;-67
2023/02/09 05:35:09;;;;;;;;;;;-1.00;98.40;;;;;;5071654;28;19967;-68
2023/02/09 05:37:35;;;;;;;;;;;-1.00;98.70;;;;;;5067615;28;19924;-69
2023/02/09 05:40:02;;;;;;;;;;;-1.00;98.80;;;;;;5072307;28;19931;-69
2023/02/09 05:42:29;;;;;;;;;;;-1.10;99.10;;;;;;5072307;28;20545;-68
2023/02/09 05:44:55;;;;;;;;;;;-1.10;99.20;;;;;;5071705;28;20470;-68
2023/02/09 05:47:23;;;;;;;;;;;-1.10;99.30;;;;;;5070496;28;19987;-68
2023/02/09 05:49:50;;;;;;;;;;;-1.10;99.60;;;;;;5068169;28;20003;-68
2023/02/09 05:52:19;;;;;;;;;;;-1.10;99.80;;;;;;5068705;28;19969;-68
2023/02/09 05:54:47;;;;;;;;;;;-1.10;99.70;;;;;;5073835;22;19929;-68
2023/02/09 05:57:14;;;;;;;;;;;-1.00;99.40;;;;;;5067095;28;19929;-68
2023/02/09 05:59:41;;;;;;;;;;;-0.90;98.80;;;;;;5062381;28;20056;-68
2023/02/09 06:02:08;;;;;;;;;;;-0.90;98.50;;;;;;5065538;28;19931;-68
2023/02/09 06:04:35;;;;;;;;;;;-0.90;98.40;;;;;;5069735;28;20020;-68
2023/02/09 06:07:01;;;;;;;;;;;-0.80;98.50;;;;;;5071634;28;19950;-69
2023/02/09 06:09:29;;;;;;;;;;;-0.80;98.40;;;;;;5070842;28;19933;-68
2023/02/09 06:11:56;;;;;;;;;;;-0.80;98.60;;;;;;5071174;28;19931;-68
2023/02/09 06:14:23;;;;;;;;;;;-0.90;98.70;;;;;;5071991;28;19935;-68
2023/02/09 06:16:49;;;;;;;;;;;-0.90;99.10;;;;;;5069209;28;19924;-68
2023/02/09 06:19:17;;;;;;;;;;;-0.90;99.50;;;;;;5059666;28;19935;-68
2023/02/09 06:21:44;;;;;;;;;;;-0.90;99.60;;;;;;5071591;28;20024;-68
2023/02/09 06:24:11;;;;;;;;;;;-0.90;99.60;;;;;;5075724;28;19924;-68
2023/02/09 06:26:39;;;;;;;;;;;-1.00;99.70;;;;;;5071490;28;19924;-68
2023/02/09 06:29:08;;;;;;;;;;;-1.00;99.80;;;;;;5068608;28;20357;-68
2023/02/09 06:31:35;;;;;;;;;;;-1.00;99.90;;;;;;5071591;28;20370;-68
2023/02/09 06:34:01;;;;;;;;;;;-1.10;99.90;;;;;;5073201;28;20011;-68
2023/02/09 06:36:28;;;;;;;;;;;-1.10;99.90;;;;;;5072392;28;20018;-68
2023/02/09 06:38:55;;;;;;;;;;;-1.10;99.90;;;;;;5060543;28;19932;-70
2023/02/09 06:41:22;;;;;;;;;;;-1.10;99.90;;;;;;5050941;28;19975;-68
2023/02/09 06:43:50;;;;;;;;;;;-1.20;99.90;;;;;;5054756;28;19925;-68
2023/02/09 06:46:16;;;;;;;;;;;-1.10;99.90;;;;;;5048819;28;19928;-67
2023/02/09 06:48:43;;;;;;;;;;;-1.20;99.90;;;;;;5048458;28;19925;-67
2023/02/09 06:51:10;;;;;;;;;;;-1.20;99.90;;;;;;5045498;28;19959;-69
2023/02/09 06:53:37;;;;;;;;;;;-1.20;99.90;;;;;;5051579;28;20268;-68
2023/02/09 06:56:04;;;;;;;;;;;-1.20;99.90;;;;;;5050858;28;20009;-69
2023/02/09 06:58:31;;;;;;;;;;;-1.10;99.90;;;;;;5052095;28;20497;-67
2023/02/09 07:01:02;;;;;;;;;;;-1.10;99.90;;;;;;5049983;28;20435;-68
2023/02/09 07:03:29;;;;;;;;;;;-1.10;99.90;;;;;;5052106;28;20364;-68
2023/02/09 07:05:56;;;;;;;;;;;-1.10;99.90;;;;;;5028537;28;20567;-68
2023/02/09 07:08:23;;;;;;;;;;;-1.00;99.90;;;;;;5049048;28;19932;-67
2023/02/09 07:10:49;;;;;;;;;;;-1.00;99.90;;;;;;5047313;28;19933;-68
2023/02/09 07:13:16;;;;;;;;;;;-0.90;99.90;;;;;;5046229;28;20380;-67
2023/02/09 07:15:43;;;;;;;;;;;-0.90;99.90;;;;;;5048964;28;20290;-71
2023/02/09 07:18:11;;;;;;;;;;;-0.90;99.90;;;;;;5049579;28;20307;-68
2023/02/09 07:20:37;;;;;;;;;;;-0.90;99.90;;;;;;5049196;28;19929;-69
2023/02/09 07:23:04;;;;;;;;;;;-0.80;99.90;;;;;;5054643;28;19936;-68
2023/02/09 07:25:31;;;;;;;;;;;-0.80;99.90;;;;;;5049933;28;20007;-66
2023/02/09 07:27:58;;;;;;;;;;;-0.70;99.90;;;;;;5050639;28;19929;-66
2023/02/09 07:30:24;;;;;;;;;;;-0.70;99.90;;;;;;5049171;28;20297;-68
2023/02/09 07:32:51;;;;;;;;;;;-0.70;99.90;;;;;;5050148;28;20063;-68
2023/02/09 07:35:19;;;;;;;;;;;-0.70;99.90;;;;;;5048004;28;19924;-69
2023/02/09 07:37:46;;;;;;;;;;;-0.70;99.80;;;;;;5048359;28;19960;-68
2023/02/09 07:40:12;;;;;;;;;;;-0.60;99.70;;;;;;5051997;28;20330;-68
2023/02/09 07:42:39;;;;;;;;;;;-0.60;99.80;;;;;;5050544;28;19929;-67
2023/02/09 07:45:06;;;;;;;;;;;-0.60;99.70;;;;;;5048494;28;19933;-70
2023/02/09 07:47:34;;;;;;;;;;;-0.50;99.90;;;;;;5053669;28;20538;-68
2023/02/09 07:50:01;;;;;;;;;;;-0.40;99.80;;;;;;5052027;28;20097;-68
2023/02/09 07:52:29;;;;;;;;;;;-0.40;99.50;;;;;;5051595;28;20027;-68
2023/02/09 07:54:55;;;;;;;;;;;-0.40;99.40;;;;;;5050758;28;20008;-70
2023/02/09 07:57:22;;;;;;;;;;;-0.30;99.10;;;;;;5051164;28;20011;-70
2023/02/09 07:59:49;;;;;;;;;;;-0.30;98.90;;;;;;5050933;28;19938;-70
2023/02/09 08:02:18;;;;;;;;;;;-0.20;99.00;;;;;;5050986;28;19932;-69
2023/02/09 08:04:45;;;;;;;;;;;-0.10;99.00;;;;;;5053172;28;20443;-69
2023/02/09 08:07:11;;;;;;;;;;;0.00;98.80;;;;;;5053572;28;19943;-70
2023/02/09 08:09:43;;;;;;;;;;;0.10;98.60;;;;;;5052775;28;19933;-69
2023/02/09 08:12:10;;;;;;;;;;;0.10;98.50;;;;;;5052179;28;19963;-69
2023/02/09 08:14:41;;;;;;;;;;;0.20;98.10;;;;;;5051667;28;21869;-70
2023/02/09 08:17:24;;;;;;;;;;;0.30;98.00;;;;;;5051038;28;19932;-68
2023/02/09 08:19:52;;;;;;;;;;;0.40;97.70;;;;;;5049434;28;19932;-69
2023/02/09 08:22:19;;;;;;;;;;;0.60;97.30;;;;;;5052083;28;20086;-70
2023/02/09 08:24:48;;;;;;;;;;;0.70;97.00;;;;;;5050391;28;19928;-69
2023/02/09 08:27:14;;;;;;;;;;;0.80;96.80;;;;;;5050960;28;19952;-69
2023/02/09 08:29:41;;;;;;;;;;;0.90;96.50;;;;;;5049238;28;20399;-69
2023/02/09 08:32:08;;;;;;;;;;;1.20;96.10;;;;;;5052002;28;19932;-70
2023/02/09 08:34:34;;;;;;;;;;;1.70;95.20;;;;;;5052659;28;19932;-70
2023/02/09 08:37:01;;;;;;;;;;;1.90;93.90;;;;;;5050982;28;19932;-71
2023/02/09 08:39:28;;;;;;;;;;;2.00;92.80;;;;;;5055671;28;19929;-70
2023/02/09 08:41:56;;;;;;;;;;;2.00;92.00;;;;;;5052679;28;19928;-70
2023/02/09 08:44:22;;;;;;;;;;;2.20;91.90;;;;;;5050304;28;19924;-69
2023/02/09 08:46:49;;;;;;;;;;;2.50;91.20;;;;;;5050759;28;19968;-70
2023/02/09 08:49:16;;;;;;;;;;;2.80;90.70;;;;;;5054398;28;19998;-70
2023/02/09 08:51:43;;;;;;;;;;;3.20;88.90;;;;;;5053231;28;19932;-69
2023/02/09 08:54:09;;;;;;;;;;;3.20;88.10;;;;;;5050910;28;19926;-69
2023/02/09 08:56:36;;;;;;;;;;;3.10;87.50;;;;;;5048972;28;20019;-69
2023/02/09 08:59:04;;;;;;;;;;;3.10;88.10;;;;;;5052479;28;20498;-70
2023/02/09 09:01:32;;;;;;;;;;;3.30;87.10;;;;;;5051966;28;20466;-68
2023/02/09 09:03:58;;;;;;;;;;;3.40;85.40;;;;;;5053934;28;19935;-70
2023/02/09 09:06:26;;;;;;;;;;;3.20;85.20;;;;;;5050521;28;19929;-70
2023/02/09 09:08:52;;;;;;;;;;;3.10;85.30;;;;;;5049922;28;20351;-70
2023/02/09 09:11:19;;;;;;;;;;;3.30;85.90;;;;;;5048214;28;19924;-70
2023/02/09 09:13:47;;;;;;;;;;;3.40;85.90;;;;;;5047455;28;19928;-70
2023/02/09 09:16:15;;;;;;;;;;;3.30;85.10;;;;;;5046196;28;19937;-70
2023/02/09 09:18:43;;;;;;;;;;;3.30;85.20;;;;;;5051548;28;19924;-69
2023/02/09 09:21:09;;;;;;;;;;;3.60;85.60;;;;;;5050905;28;20035;-78
2023/02/09 09:23:36;;;;;;;;;;;4.00;83.20;;;;;;5053889;28;20295;-77
2023/02/09 09:26:03;;;;;;;;;;;4.20;81.70;;;;;;5053977;28;19928;-77
2023/02/09 09:28:30;;;;;;;;;;;4.50;80.10;;;;;;5053099;28;19944;-77
2023/02/09 09:30:58;;;;;;;;;;;4.70;78.70;;;;;;5052401;28;20026;-77
2023/02/09 09:33:26;;;;;;;;;;;4.90;76.40;;;;;;5054205;28;20021;-79
2023/02/09 09:35:53;;;;;;;;;;;4.60;75.20;;;;;;5050284;28;19928;-79
2023/02/09 09:38:19;;;;;;;;;;;4.70;76.30;;;;;;5053773;28;19931;-76
2023/02/09 09:40:46;;;;;;;;;;;4.80;75.20;;;;;;5050296;28;20015;-78
2023/02/09 09:43:19;;;;;;;;;;;4.50;72.60;;;;;;5052068;28;20022;-77
2023/02/09 09:45:45;;;;;;;;;;;3.90;73.50;;;;;;5050882;28;19924;-78
2023/02/09 09:48:18;;;;;;;;;;;3.40;76.40;;;;;;5054881;28;20290;-77
2023/02/09 09:50:46;;;;;;;;;;;3.30;78.60;;;;;;5053219;28;19932;-76
2023/02/09 09:53:18;;;;;;;;;;;3.30;80.90;;;;;;5051680;28;20932;-77
2023/02/09 09:55:46;;;;;;;;;;;3.40;81.00;;;;;;5047459;28;20414;-77
2023/02/09 09:58:16;;;;;;;;;;;3.30;81.70;;;;;;5049596;28;19941;-77
2023/02/09 10:00:43;;;;;;;;;;;3.40;82.10;;;;;;5050734;28;19928;-76
2023/02/09 10:03:13;;;;;;;;;;;3.30;81.90;;;;;;5053468;28;20910;-77
2023/02/09 10:05:40;;;;;;;;;;;3.40;83.10;;;;;;5051653;28;19931;-79
2023/02/09 10:08:12;;;;;;;;;;;3.50;83.30;;;;;;5054304;28;19983;-71
2023/02/09 10:10:41;;;;;;;;;;;3.30;82.80;;;;;;5044973;28;20031;-70
2023/02/09 10:13:13;;;;;;;;;;;3.30;83.00;;;;;;5051274;28;19932;-70
2023/02/09 10:15:40;;;;;;;;;;;3.30;83.80;;;;;;5050020;28;19931;-70
2023/02/09 10:18:12;;;;;;;;;;;3.30;83.60;;;;;;5049823;28;19940;-70
2023/02/09 10:20:43;;;;;;;;;;;3.20;83.70;;;;;;5050709;28;19939;-70
2023/02/09 10:23:19;;;;;;;;;;;3.20;85.10;;;;;;5049672;28;20833;-70
2023/02/09 10:25:52;;;;;;;;;;;3.10;84.90;;;;;;5049538;28;19956;-70
2023/02/09 10:28:20;;;;;;;;;;;3.10;85.10;;;;;;5049629;28;19944;-70
2023/02/09 10:30:46;;;;;;;;;;;3.20;85.70;;;;;;5050498;28;19936;-70
2023/02/09 10:33:14;;;;;;;;;;;3.30;85.70;;;;;;5050958;28;19954;-71
2023/02/09 10:35:43;;;;;;;;;;;3.30;85.40;;;;;;5048933;28;19933;-71
2023/02/09 10:38:14;;;;;;;;;;;3.30;85.70;;;;;;5052397;28;19982;-70
2023/02/09 10:40:43;;;;;;;;;;;3.30;84.90;;;;;;5051551;28;19928;-70
2023/02/09 10:43:19;;;;;;;;;;;3.50;85.50;;;;;;5051780;28;20011;-70
2023/02/09 10:45:46;;;;;;;;;;;3.60;85.10;;;;;;5048756;28;19932;-70
2023/02/09 10:48:17;;;;;;;;;;;3.80;85.30;;;;;;5050814;28;19925;-70
2023/02/09 10:50:48;;;;;;;;;;;4.00;84.50;;;;;;5046984;28;19932;-69
2023/02/09 10:53:19;;;;;;;;;;;4.00;83.70;;;;;;5050457;28;19924;-70
2023/02/09 10:55:47;;;;;;;;;;;4.10;84.30;;;;;;5049611;28;19933;-70
2023/02/09 10:58:21;;;;;;;;;;;4.10;83.40;;;;;;5045475;28;20053;-70
2023/02/09 11:00:50;;;;;;;;;;;4.20;83.30;;;;;;5045888;28;19932;-70
2023/02/09 11:03:18;;;;;;;;;;;4.30;83.60;;;;;;5049105;28;19939;-70
2023/02/09 11:05:46;;;;;;;;;;;4.20;83.40;;;;;;5050296;28;19928;-70
2023/02/09 11:08:17;;;;;;;;;;;4.30;83.90;;;;;;5048294;28;20059;-70
2023/02/09 11:10:47;;;;;;;;;;;4.30;84.90;;;;;;5052141;28;20311;-71
2023/02/09 11:13:18;;;;;;;;;;;4.50;85.30;;;;;;5047005;28;19931;-71
2023/02/09 11:15:53;;;;;;;;;;;4.50;84.80;;;;;;5048706;28;20249;-71
2023/02/09 11:18:20;;;;;;;;;;;4.50;84.80;;;;;;5041879;28;19928;-72
2023/02/09 11:20:50;;;;;;;;;;;4.60;84.70;;;;;;5042783;28;23385;-71
2023/02/09 11:23:27;;;;;;;;;;;4.60;85.40;;;;;;5051035;28;20049;-71
2023/02/09 11:25:59;;;;;;;;;;;4.70;84.70;;;;;;5052693;28;21291;-72
2023/02/09 11:28:33;;;;;;;;;;;4.60;85.30;;;;;;5052122;28;19928;-72
2023/02/09 11:31:12;;;;;;;;;;;4.70;86.60;;;;;;5050395;28;19929;-71
2023/02/09 11:33:42;;;;;;;;;;;4.80;86.10;;;;;;5052117;28;20685;-72
2023/02/09 11:36:15;;;;;;;;;;;4.70;86.20;;;;;;5057220;28;19935;-72
2023/02/09 11:38:46;;;;;;;;;;;4.60;87.00;;;;;;5055691;28;20391;-73
2023/02/09 11:44:02;;;;;;;;;;;4.50;86.40;;;;;;5051463;28;20041;-72
2023/02/09 11:46:31;;;;;;;;;;;4.70;87.90;;;;;;5051056;28;20628;-71
2023/02/09 11:49:00;;;;;;;;;;;4.90;88.10;;;;;;5055576;28;19940;-71
2023/02/09 11:51:27;;;;;;;;;;;5.00;87.80;;;;;;5051532;28;20024;-71
2023/02/09 11:53:55;;;;;;;;;;;5.00;88.20;;;;;;5051775;28;20056;-71
2023/02/09 11:56:22;;;;;;;;;;;5.10;89.20;;;;;;5054983;28;19934;-75
2023/02/09 11:58:53;;;;;;;;;;;5.20;89.40;;;;;;5053307;28;19954;-72
2023/02/09 12:01:26;;;;;;;;;;;5.30;89.30;;;;;;5052838;28;20395;-72
2023/02/09 12:04:05;;;;;;;;;;;5.30;89.80;;;;;;5054303;28;20477;-71
2023/02/09 12:06:35;;;;;;;;;;;5.30;90.30;;;;;;5054528;28;19932;-72
2023/02/09 12:09:04;;;;;;;;;;;5.20;90.10;;;;;;5053296;28;19955;-72
2023/02/09 12:11:36;;;;;;;;;;;5.20;90.70;;;;;;5062225;28;19924;-71
2023/02/09 12:14:27;;;;;;;;;;;5.20;91.10;;;;;;5048951;28;19950;-71
2023/02/09 12:16:58;;;;;;;;;;;5.50;90.90;;;;;;5046606;28;20011;-72
2023/02/09 12:19:28;;;;;;;;;;;5.60;91.10;;;;;;5051642;28;19933;-71
2023/02/09 12:21:54;;;;;;;;;;;5.60;90.90;;;;;;5051092;28;19932;-71
2023/02/09 12:24:30;;;;;;;;;;;5.60;90.00;;;;;;5047870;28;20287;-71
2023/02/09 12:26:57;;;;;;;;;;;5.50;90.20;;;;;;5048340;28;19924;-72
2023/02/09 12:29:26;;;;;;;;;;;5.60;90.40;;;;;;5052605;28;19933;-71
2023/02/09 12:32:11;;;;;;;;;;;5.80;90.60;;;;;;5047645;28;20397;-71
2023/02/09 12:34:40;;;;;;;;;;;5.90;90.70;;;;;;5051284;28;20299;-71
2023/02/09 12:37:16;;;;;;;;;;;5.90;91.10;;;;;;5051756;28;19932;-71
2023/02/09 12:40:04;;;;;;;;;;;5.80;91.40;;;;;;5050444;28;20664;-73
2023/02/09 12:42:38;;;;;;;;;;;6.00;91.80;;;;;;5043033;28;19964;-71
2023/02/09 12:45:28;;;;;;;;;;;6.10;92.20;;;;;;5052537;28;19933;-71
2023/02/09 12:47:57;;;;;;;;;;;6.00;92.50;;;;;;5051064;28;19983;-70
2023/02/09 12:50:44;;;;;;;;;;;5.90;92.00;;;;;;5053990;28;19932;-71
2023/02/09 12:53:29;;;;;;;;;;;6.10;92.90;;;;;;5053622;28;20031;-71
2023/02/09 12:55:59;;;;;;;;;;;6.30;93.10;;;;;;5054048;28;19928;-71
2023/02/09 12:58:36;;;;;;;;;;;6.20;93.10;;;;;;5051624;28;19932;-71
2023/02/09 13:01:03;;;;;;;;;;;6.20;93.50;;;;;;5051550;28;20396;-71
2023/02/09 13:03:30;;;;;;;;;;;6.10;93.50;;;;;;5053767;28;20318;-72
2023/02/09 13:05:59;;;;;;;;;;;6.10;93.90;;;;;;5052007;28;19928;-73
2023/02/09 13:08:29;;;;;;;;;;;6.00;94.10;;;;;;5049987;28;19976;-72
2023/02/09 13:10:57;;;;;;;;;;;6.10;94.60;;;;;;5050969;28;19932;-69
2023/02/09 13:13:28;;;;;;;;;;;6.10;94.80;;;;;;5049721;28;19939;-69
2023/02/09 13:16:03;;;;;;;;;;;6.10;95.20;;;;;;5050109;28;20407;-67
2023/02/09 13:18:33;;;;;;;;;;;6.00;95.10;;;;;;5052267;28;20398;-67
2023/02/09 13:21:12;;;;;;;;;;;6.00;95.50;;;;;;5050477;28;19928;-66
2023/02/09 13:23:44;;;;;;;;;;;6.00;96.00;;;;;;5052016;28;20469;-67
2023/02/09 13:26:16;;;;;;;;;;;6.00;96.40;;;;;;5054733;28;19938;-69
2023/02/09 13:28:43;;;;;;;;;;;6.00;96.00;;;;;;5047224;28;20422;-66
2023/02/09 13:31:16;;;;;;;;;;;6.10;96.10;;;;;;5050823;28;19971;-66
2023/02/09 13:33:46;;;;;;;;;;;6.20;96.30;;;;;;5054309;28;20959;-66
2023/02/09 13:36:19;;;;;;;;;;;6.40;95.90;;;;;;5051378;28;20434;-66
2023/02/09 13:38:46;;;;;;;;;;;6.40;95.50;;;;;;5051500;28;19964;-66
2023/02/09 13:41:26;;;;;;;;;;;6.50;95.80;;;;;;5049883;28;19934;-66
2023/02/09 13:43:53;;;;;;;;;;;6.50;96.30;;;;;;5050830;28;20248;-66
2023/02/09 13:46:24;;;;;;;;;;;6.60;96.10;;;;;;5050664;28;20023;-66
2023/02/09 13:48:50;;;;;;;;;;;6.80;96.10;;;;;;5054173;28;20448;-66
2023/02/09 13:51:19;;;;;;;;;;;6.80;96.10;;;;;;5052602;28;20018;-66
2023/02/09 13:53:55;;;;;;;;;;;6.80;95.90;;;;;;5050703;28;19932;-65
2023/02/09 13:56:22;;;;;;;;;;;6.60;96.20;;;;;;5050409;28;19936;-66
2023/02/09 13:58:49;;;;;;;;;;;6.60;96.70;;;;;;5047724;28;19928;-66
2023/02/09 14:01:17;;;;;;;;;;;6.70;96.90;;;;;;5047140;28;19998;-66
2023/02/09 14:03:46;;;;;;;;;;;6.60;97.20;;;;;;5047706;28;19932;-66
2023/02/09 14:06:16;;;;;;;;;;;6.60;97.40;;;;;;5042758;28;20050;-66
2023/02/09 14:08:45;;;;;;;;;;;6.50;97.30;;;;;;5053015;28;20410;-69
2023/02/09 14:11:24;;;;;;;;;;;6.60;98.00;;;;;;5050524;28;19928;-66
2023/02/09 14:13:52;;;;;;;;;;;6.60;98.50;;;;;;5052051;28;19942;-67
2023/02/09 14:16:19;;;;;;;;;;;6.50;98.10;;;;;;5049722;28;20007;-69
2023/02/09 14:18:48;;;;;;;;;;;6.60;98.50;;;;;;5050402;28;19928;-66
2023/02/09 14:21:16;;;;;;;;;;;6.60;98.70;;;;;;5051055;28;20680;-68
2023/02/09 14:23:45;;;;;;;;;;;6.50;98.70;;;;;;5053330;28;19937;-68
2023/02/09 14:26:23;;;;;;;;;;;6.50;99.00;;;;;;5047754;28;20364;-65
2023/02/09 14:28:51;;;;;;;;;;;6.50;99.20;;;;;;5051485;28;19954;-68
2023/02/09 14:31:19;;;;;;;;;;;6.50;99.60;;;;;;5052159;28;19928;-68
2023/02/09 14:33:47;;;;;;;;;;;6.50;99.60;;;;;;5051527;28;19939;-69
2023/02/09 14:36:25;;;;;;;;;;;6.60;99.60;;;;;;5050878;28;19924;-68
2023/02/09 14:39:04;;;;;;;;;;;6.60;99.30;;;;;;5050972;28;19932;-69
2023/02/09 14:41:32;;;;;;;;;;;6.60;99.60;;;;;;5049215;28;20015;-69
2023/02/09 14:44:00;;;;;;;;;;;6.60;99.60;;;;;;5048303;28;19960;-69